sensor_id;sensor_type;location;lat;lon;timestamp;pressure;altitude;pressure_sealevel;temperature;humidity
29045;BME280;16133;49.486;12.176;2023-04-09T00:01:49;98111.63;;;3.49;100.00
29045;BME280;16133;49.486;12.176;2023-04-09T00:04:14;98115.53;;;3.43;100.00
29045;BME280;16133;49.486;12.176;2023-04-09T00:06:39;98125.88;;;3.33;100.00
29045;BME280;16133;49.486;12.176;2023-04-09T00:09:05;98118.59;;;3.26;100.00
29045;BME280;16133;49.486;12.176;2023-04-09T00:11:30;98120.25;;;3.16;100.00
29045;BME280;16133;49.486;12.176;2023-04-09T00:13:59;98123.78;;;3.04;100.00
29045;BME280;16133;49.486;12.176;2023-04-09T00:16:24;98114.69;;;2.85;100.00
29045;BME280;16133;49.486;12.176;2023-04-09T00:18:49;98120.47;;;2.67;100.00
29045;BME280;16133;49.486;12.176;2023-04-09T00:21:15;98113.22;;;2.47;100.00
29045;BME280;16133;49.486;12.176;2023-04-09T00:23:41;98116.47;;;2.26;100.00
29045;BME280;16133;49.486;12.176;2023-04-09T00:26:07;98116.94;;;2.08;100.00
29045;BME280;16133;49.486;12.176;2023-04-09T00:28:33;98111.97;;;1.92;100.00
29045;BME280;16133;49.486;12.176;2023-04-09T00:30:58;98108.78;;;1.76;100.00
29045;BME280;16133;49.486;12.176;2023-04-09T00:33:23;98098.25;;;1.65;100.00
29045;BME280;16133;49.486;12.176;2023-04-09T00:35:49;98105.78;;;1.57;100.00
29045;BME280;16133;49.486;12.176;2023-04-09T00:38:15;98097.19;;;1.55;100.00
29045;BME280;16133;49.486;12.176;2023-04-09T00:40:40;98093.25;;;1.49;100.00
29045;BME280;16133;49.486;12.176;2023-04-09T00:43:06;98089.78;;;1.49;100.00
29045;BME280;16133;49.486;12.176;2023-04-09T00:45:32;98087.38;;;1.46;100.00
29045;BME280;16133;49.486;12.176;2023-04-09T00:47:58;98078.28;;;1.38;100.00
29045;BME280;16133;49.486;12.176;2023-04-09T00:50:23;98070.34;;;1.27;100.00
29045;BME280;16133;49.486;12.176;2023-04-09T00:52:49;98069.31;;;1.30;100.00
29045;BME280;16133;49.486;12.176;2023-04-09T00:55:14;98060.63;;;1.29;100.00
29045;BME280;16133;49.486;12.176;2023-04-09T00:57:40;98056.88;;;1.21;100.00
29045;BME280;16133;49.486;12.176;2023-04-09T01:00:06;98055.72;;;1.12;100.00
29045;BME280;16133;49.486;12.176;2023-04-09T01:02:32;98061.91;;;0.99;100.00
29045;BME280;16133;49.486;12.176;2023-04-09T01:04:58;98065.34;;;0.86;100.00
29045;BME280;16133;49.486;12.176;2023-04-09T01:11:08;98080.56;;;0.67;100.00
29045;BME280;16133;49.486;12.176;2023-04-09T01:14:02;98071.69;;;0.57;100.00
29045;BME280;16133;49.486;12.176;2023-04-09T01:16:33;98081.66;;;0.51;100.00
29045;BME280;16133;49.486;12.176;2023-04-09T01:19:03;98078.94;;;0.39;100.00
29045;BME280;16133;49.486;12.176;2023-04-09T01:21:31;98077.47;;;0.35;100.00
29045;BME280;16133;49.486;12.176;2023-04-09T01:24:24;98070.66;;;0.33;100.00
29045;BME280;16133;49.486;12.176;2023-04-09T01:27:04;98068.66;;;0.24;100.00
29045;BME280;16133;49.486;12.176;2023-04-09T01:29:32;98068.44;;;0.14;100.00
29045;BME280;16133;49.486;12.176;2023-04-09T01:31:59;98070.47;;;0.09;100.00
29045;BME280;16133;49.486;12.176;2023-04-09T01:34:27;98066.69;;;0.00;100.00
29045;BME280;16133;49.486;12.176;2023-04-09T01:36:56;98073.16;;;-0.05;100.00
29045;BME280;16133;49.486;12.176;2023-04-09T01:39:22;98075.41;;;-0.13;100.00
29045;BME280;16133;49.486;12.176;2023-04-09T01:41:49;98071.50;;;-0.20;100.00
29045;BME280;16133;49.486;12.176;2023-04-09T01:44:15;98070.97;;;-0.25;100.00
29045;BME280;16133;49.486;12.176;2023-04-09T01:46:41;98073.56;;;-0.25;100.00
29045;BME280;16133;49.486;12.176;2023-04-09T01:49:08;98067.97;;;-0.19;100.00
29045;BME280;16133;49.486;12.176;2023-04-09T01:51:35;98073.28;;;-0.21;100.00
29045;BME280;16133;49.486;12.176;2023-04-09T01:54:02;98064.19;;;-0.28;100.00
29045;BME280;16133;49.486;12.176;2023-04-09T01:56:47;98066.50;;;-0.37;100.00
29045;BME280;16133;49.486;12.176;2023-04-09T01:59:13;98070.44;;;-0.44;100.00
29045;BME280;16133;49.486;12.176;2023-04-09T02:01:50;98076.97;;;-0.52;100.00
29045;BME280;16133;49.486;12.176;2023-04-09T02:04:27;98073.59;;;-0.54;100.00
29045;BME280;16133;49.486;12.176;2023-04-09T02:07:08;98080.69;;;-0.56;100.00
29045;BME280;16133;49.486;12.176;2023-04-09T02:09:36;98077.72;;;-0.64;100.00
29045;BME280;16133;49.486;12.176;2023-04-09T02:12:05;98083.47;;;-0.73;100.00
29045;BME280;16133;49.486;12.176;2023-04-09T02:14:31;98084.78;;;-0.80;100.00
29045;BME280;16133;49.486;12.176;2023-04-09T02:16:58;98091.22;;;-0.85;100.00
29045;BME280;16133;49.486;12.176;2023-04-09T02:19:24;98083.75;;;-0.91;100.00
29045;BME280;16133;49.486;12.176;2023-04-09T02:21:50;98076.78;;;-1.05;100.00
29045;BME280;16133;49.486;12.176;2023-04-09T02:24:15;98092.03;;;-0.99;100.00
29045;BME280;16133;49.486;12.176;2023-04-09T02:26:40;98090.38;;;-1.00;100.00
29045;BME280;16133;49.486;12.176;2023-04-09T02:29:06;98084.41;;;-1.02;100.00
29045;BME280;16133;49.486;12.176;2023-04-09T02:31:31;98081.81;;;-1.02;100.00
29045;BME280;16133;49.486;12.176;2023-04-09T02:33:56;98079.19;;;-1.02;100.00
29045;BME280;16133;49.486;12.176;2023-04-09T02:36:22;98075.22;;;-1.08;100.00
29045;BME280;16133;49.486;12.176;2023-04-09T02:38:47;98077.25;;;-1.13;100.00
29045;BME280;16133;49.486;12.176;2023-04-09T02:41:13;98080.31;;;-1.20;100.00
29045;BME280;16133;49.486;12.176;2023-04-09T02:43:38;98088.56;;;-1.28;100.00
29045;BME280;16133;49.486;12.176;2023-04-09T02:46:04;98088.75;;;-1.31;100.00
29045;BME280;16133;49.486;12.176;2023-04-09T02:48:29;98096.63;;;-1.32;100.00
29045;BME280;16133;49.486;12.176;2023-04-09T02:50:54;98090.41;;;-1.30;100.00
29045;BME280;16133;49.486;12.176;2023-04-09T02:53:20;98088.63;;;-1.29;100.00
29045;BME280;16133;49.486;12.176;2023-04-09T02:55:48;98096.25;;;-1.26;100.00
29045;BME280;16133;49.486;12.176;2023-04-09T02:58:14;98084.38;;;-1.30;100.00
29045;BME280;16133;49.486;12.176;2023-04-09T03:00:39;98077.75;;;-1.36;100.00
29045;BME280;16133;49.486;12.176;2023-04-09T03:03:05;98074.91;;;-1.31;100.00
29045;BME280;16133;49.486;12.176;2023-04-09T03:05:30;98076.84;;;-1.35;100.00
29045;BME280;16133;49.486;12.176;2023-04-09T03:07:55;98069.09;;;-1.36;100.00
29045;BME280;16133;49.486;12.176;2023-04-09T03:10:21;98069.09;;;-1.36;100.00
29045;BME280;16133;49.486;12.176;2023-04-09T03:12:46;98063.91;;;-1.36;100.00
29045;BME280;16133;49.486;12.176;2023-04-09T03:15:12;98058.50;;;-1.33;100.00
29045;BME280;16133;49.486;12.176;2023-04-09T03:17:37;98053.50;;;-1.36;100.00
29045;BME280;16133;49.486;12.176;2023-04-09T03:20:04;98052.91;;;-1.41;100.00
29045;BME280;16133;49.486;12.176;2023-04-09T03:22:34;98045.94;;;-1.41;100.00
29045;BME280;16133;49.486;12.176;2023-04-09T03:25:00;98036.13;;;-1.36;100.00
29045;BME280;16133;49.486;12.176;2023-04-09T03:27:25;98028.03;;;-1.31;100.00
29045;BME280;16133;49.486;12.176;2023-04-09T03:29:54;98017.50;;;-1.30;100.00
29045;BME280;16133;49.486;12.176;2023-04-09T03:32:20;98015.09;;;-1.33;100.00
29045;BME280;16133;49.486;12.176;2023-04-09T03:34:45;98015.22;;;-1.34;100.00
29045;BME280;16133;49.486;12.176;2023-04-09T03:37:11;98013.53;;;-1.35;100.00
29045;BME280;16133;49.486;12.176;2023-04-09T03:39:36;98010.66;;;-1.31;100.00
29045;BME280;16133;49.486;12.176;2023-04-09T03:42:01;98016.72;;;-1.30;100.00
29045;BME280;16133;49.486;12.176;2023-04-09T03:44:27;98010.47;;;-1.28;100.00
29045;BME280;16133;49.486;12.176;2023-04-09T03:46:52;97998.03;;;-1.23;100.00
29045;BME280;16133;49.486;12.176;2023-04-09T03:49:18;97986.94;;;-1.12;100.00
29045;BME280;16133;49.486;12.176;2023-04-09T03:51:43;97984.59;;;-1.03;100.00
29045;BME280;16133;49.486;12.176;2023-04-09T03:54:08;97977.44;;;-0.99;100.00
29045;BME280;16133;49.486;12.176;2023-04-09T03:56:34;97967.88;;;-0.99;100.00
29045;BME280;16133;49.486;12.176;2023-04-09T03:58:59;97959.41;;;-1.02;100.00
29045;BME280;16133;49.486;12.176;2023-04-09T04:01:25;97960.63;;;-1.08;100.00
29045;BME280;16133;49.486;12.176;2023-04-09T04:03:50;97968.91;;;-1.15;100.00
29045;BME280;16133;49.486;12.176;2023-04-09T04:06:15;97980.81;;;-1.25;100.00
29045;BME280;16133;49.486;12.176;2023-04-09T04:08:41;97984.91;;;-1.35;100.00
29045;BME280;16133;49.486;12.176;2023-04-09T04:11:06;97998.38;;;-1.43;100.00
29045;BME280;16133;49.486;12.176;2023-04-09T04:13:32;98003.19;;;-1.51;100.00
29045;BME280;16133;49.486;12.176;2023-04-09T04:15:57;98009.56;;;-1.57;100.00
29045;BME280;16133;49.486;12.176;2023-04-09T04:18:22;98004.66;;;-1.61;100.00
29045;BME280;16133;49.486;12.176;2023-04-09T04:20:48;98020.28;;;-1.61;100.00
29045;BME280;16133;49.486;12.176;2023-04-09T04:23:13;98024.66;;;-1.62;100.00
29045;BME280;16133;49.486;12.176;2023-04-09T04:25:42;98010.78;;;-1.62;100.00
29045;BME280;16133;49.486;12.176;2023-04-09T04:28:07;98011.25;;;-1.70;100.00
29045;BME280;16133;49.486;12.176;2023-04-09T04:30:33;98020.81;;;-1.56;100.00
29045;BME280;16133;49.486;12.176;2023-04-09T04:32:58;98005.97;;;-1.54;100.00
29045;BME280;16133;49.486;12.176;2023-04-09T04:35:24;98017.22;;;-1.54;100.00
29045;BME280;16133;49.486;12.176;2023-04-09T04:37:49;98013.78;;;-1.54;100.00
29045;BME280;16133;49.486;12.176;2023-04-09T04:40:15;98018.16;;;-1.55;100.00
29045;BME280;16133;49.486;12.176;2023-04-09T04:42:41;98008.78;;;-1.43;100.00
29045;BME280;16133;49.486;12.176;2023-04-09T04:45:07;97997.53;;;-1.43;100.00
29045;BME280;16133;49.486;12.176;2023-04-09T04:47:33;97986.94;;;-1.26;100.00
29045;BME280;16133;49.486;12.176;2023-04-09T04:49:58;97948.66;;;-1.38;100.00
29045;BME280;16133;49.486;12.176;2023-04-09T04:52:23;97955.72;;;-1.12;100.00
29045;BME280;16133;49.486;12.176;2023-04-09T04:54:49;97929.09;;;-1.17;100.00
29045;BME280;16133;49.486;12.176;2023-04-09T04:57:14;97946.31;;;-1.01;100.00
29045;BME280;16133;49.486;12.176;2023-04-09T04:59:40;97937.09;;;-1.06;100.00
29045;BME280;16133;49.486;12.176;2023-04-09T05:02:06;97943.41;;;-0.96;100.00
29045;BME280;16133;49.486;12.176;2023-04-09T05:04:31;97945.53;;;-0.88;100.00
29045;BME280;16133;49.486;12.176;2023-04-09T05:06:57;97925.03;;;-0.80;100.00
29045;BME280;16133;49.486;12.176;2023-04-09T05:09:22;97929.75;;;-0.73;100.00
29045;BME280;16133;49.486;12.176;2023-04-09T05:11:47;97923.97;;;-0.64;100.00
29045;BME280;16133;49.486;12.176;2023-04-09T05:14:13;97905.00;;;-0.66;100.00
29045;BME280;16133;49.486;12.176;2023-04-09T05:16:38;97915.38;;;-0.52;100.00
29045;BME280;16133;49.486;12.176;2023-04-09T05:19:03;97912.84;;;-0.26;100.00
29045;BME280;16133;49.486;12.176;2023-04-09T05:21:29;97911.50;;;-0.19;100.00
29045;BME280;16133;49.486;12.176;2023-04-09T05:23:54;97903.41;;;-0.02;100.00
29045;BME280;16133;49.486;12.176;2023-04-09T05:26:19;97872.63;;;0.03;100.00
29045;BME280;16133;49.486;12.176;2023-04-09T05:28:46;97881.41;;;0.40;100.00
29045;BME280;16133;49.486;12.176;2023-04-09T05:31:12;97871.34;;;0.59;100.00
29045;BME280;16133;49.486;12.176;2023-04-09T05:33:38;97856.59;;;0.71;100.00
29045;BME280;16133;49.486;12.176;2023-04-09T05:36:03;97855.22;;;0.78;100.00
29045;BME280;16133;49.486;12.176;2023-04-09T05:38:29;97842.06;;;0.79;100.00
29045;BME280;16133;49.486;12.176;2023-04-09T05:40:54;97848.53;;;0.86;100.00
29045;BME280;16133;49.486;12.176;2023-04-09T05:43:19;97859.97;;;0.96;100.00
29045;BME280;16133;49.486;12.176;2023-04-09T05:45:45;97858.94;;;0.99;100.00
29045;BME280;16133;49.486;12.176;2023-04-09T05:48:10;97868.78;;;0.95;100.00
29045;BME280;16133;49.486;12.176;2023-04-09T05:50:35;97866.56;;;1.02;100.00
29045;BME280;16133;49.486;12.176;2023-04-09T05:53:01;97881.16;;;1.05;100.00
29045;BME280;16133;49.486;12.176;2023-04-09T05:55:26;97879.63;;;1.02;100.00
29045;BME280;16133;49.486;12.176;2023-04-09T05:57:52;97888.28;;;1.03;100.00
29045;BME280;16133;49.486;12.176;2023-04-09T06:00:18;97856.47;;;0.85;100.00
29045;BME280;16133;49.486;12.176;2023-04-09T06:02:43;97900.50;;;1.15;100.00
29045;BME280;16133;49.486;12.176;2023-04-09T06:05:09;97890.38;;;1.10;100.00
29045;BME280;16133;49.486;12.176;2023-04-09T06:07:35;97894.31;;;1.16;100.00
29045;BME280;16133;49.486;12.176;2023-04-09T06:10:00;97910.50;;;1.21;100.00
29045;BME280;16133;49.486;12.176;2023-04-09T06:12:26;97885.47;;;1.06;100.00
29045;BME280;16133;49.486;12.176;2023-04-09T06:14:51;97896.75;;;1.06;100.00
29045;BME280;16133;49.486;12.176;2023-04-09T06:17:16;97901.66;;;1.11;100.00
29045;BME280;16133;49.486;12.176;2023-04-09T06:19:42;97918.13;;;1.24;100.00
29045;BME280;16133;49.486;12.176;2023-04-09T06:22:10;97902.00;;;1.30;100.00
29045;BME280;16133;49.486;12.176;2023-04-09T06:24:36;97898.44;;;1.55;100.00
29045;BME280;16133;49.486;12.176;2023-04-09T06:27:01;97878.97;;;1.59;100.00
29045;BME280;16133;49.486;12.176;2023-04-09T06:29:26;97907.66;;;1.95;100.00
29045;BME280;16133;49.486;12.176;2023-04-09T06:31:52;97907.22;;;2.12;100.00
29045;BME280;16133;49.486;12.176;2023-04-09T06:34:17;97895.94;;;2.23;100.00
29045;BME280;16133;49.486;12.176;2023-04-09T06:36:42;97914.19;;;2.47;100.00
29045;BME280;16133;49.486;12.176;2023-04-09T06:39:08;97914.69;;;2.63;100.00
29045;BME280;16133;49.486;12.176;2023-04-09T06:41:34;97922.66;;;2.72;100.00
29045;BME280;16133;49.486;12.176;2023-04-09T06:43:59;97937.34;;;2.86;100.00
29045;BME280;16133;49.486;12.176;2023-04-09T06:46:25;97923.28;;;2.76;100.00
29045;BME280;16133;49.486;12.176;2023-04-09T06:48:51;97951.13;;;2.88;100.00
29045;BME280;16133;49.486;12.176;2023-04-09T06:51:17;97969.97;;;2.93;100.00
29045;BME280;16133;49.486;12.176;2023-04-09T06:53:42;97988.47;;;3.03;100.00
29045;BME280;16133;49.486;12.176;2023-04-09T06:56:07;97990.47;;;3.10;100.00
29045;BME280;16133;49.486;12.176;2023-04-09T06:58:33;97988.44;;;3.36;100.00
29045;BME280;16133;49.486;12.176;2023-04-09T07:00:58;97994.75;;;3.56;100.00
29045;BME280;16133;49.486;12.176;2023-04-09T07:03:23;97960.59;;;3.67;100.00
29045;BME280;16133;49.486;12.176;2023-04-09T07:05:49;97968.69;;;4.07;100.00
29045;BME280;16133;49.486;12.176;2023-04-09T07:08:14;97953.16;;;4.36;100.00
29045;BME280;16133;49.486;12.176;2023-04-09T07:10:40;97926.41;;;4.72;100.00
29045;BME280;16133;49.486;12.176;2023-04-09T07:13:05;97910.13;;;5.18;100.00
29045;BME280;16133;49.486;12.176;2023-04-09T07:15:31;97925.22;;;5.75;100.00
29045;BME280;16133;49.486;12.176;2023-04-09T07:17:56;97973.53;;;6.43;100.00
29045;BME280;16133;49.486;12.176;2023-04-09T07:20:22;98052.03;;;6.97;100.00
29045;BME280;16133;49.486;12.176;2023-04-09T07:22:47;98154.09;;;7.15;100.00
29045;BME280;16133;49.486;12.176;2023-04-09T07:25:14;98193.09;;;7.21;100.00
29045;BME280;16133;49.486;12.176;2023-04-09T07:27:39;98211.19;;;7.16;100.00
29045;BME280;16133;49.486;12.176;2023-04-09T07:30:05;98207.00;;;7.04;100.00
29045;BME280;16133;49.486;12.176;2023-04-09T07:32:30;98218.38;;;7.14;100.00
29045;BME280;16133;49.486;12.176;2023-04-09T07:34:56;98220.06;;;7.35;100.00
29045;BME280;16133;49.486;12.176;2023-04-09T07:37:23;98182.25;;;7.34;100.00
29045;BME280;16133;49.486;12.176;2023-04-09T07:39:49;98201.91;;;7.78;100.00
29045;BME280;16133;49.486;12.176;2023-04-09T07:42:15;98184.66;;;7.93;100.00
29045;BME280;16133;49.486;12.176;2023-04-09T07:44:40;98193.25;;;7.95;96.73
29045;BME280;16133;49.486;12.176;2023-04-09T07:47:06;98206.34;;;7.87;92.99
29045;BME280;16133;49.486;12.176;2023-04-09T07:49:32;98205.69;;;7.85;93.04
29045;BME280;16133;49.486;12.176;2023-04-09T07:51:59;98184.03;;;7.62;92.32
29045;BME280;16133;49.486;12.176;2023-04-09T07:54:24;98198.22;;;7.61;92.96
29045;BME280;16133;49.486;12.176;2023-04-09T07:56:50;98204.97;;;7.93;93.75
29045;BME280;16133;49.486;12.176;2023-04-09T07:59:16;98207.88;;;8.36;92.84
29045;BME280;16133;49.486;12.176;2023-04-09T08:01:42;98206.78;;;8.84;86.92
29045;BME280;16133;49.486;12.176;2023-04-09T08:04:08;98205.19;;;8.73;87.01
29045;BME280;16133;49.486;12.176;2023-04-09T08:06:33;98208.81;;;8.72;86.21
29045;BME280;16133;49.486;12.176;2023-04-09T08:09:00;98214.94;;;8.73;86.34
29045;BME280;16133;49.486;12.176;2023-04-09T08:11:25;98192.94;;;8.72;85.59
29045;BME280;16133;49.486;12.176;2023-04-09T08:13:51;98170.50;;;8.76;82.88
29045;BME280;16133;49.486;12.176;2023-04-09T08:16:17;98201.94;;;8.97;81.88
29045;BME280;16133;49.486;12.176;2023-04-09T08:18:42;98203.16;;;9.02;81.89
29045;BME280;16133;49.486;12.176;2023-04-09T08:21:08;98210.66;;;9.25;80.43
29045;BME280;16133;49.486;12.176;2023-04-09T08:23:33;98212.78;;;9.39;79.94
29045;BME280;16133;49.486;12.176;2023-04-09T08:25:58;98214.78;;;9.63;79.08
29045;BME280;16133;49.486;12.176;2023-04-09T08:28:23;98201.47;;;9.72;80.45
29045;BME280;16133;49.486;12.176;2023-04-09T08:30:49;98219.41;;;10.04;78.44
29045;BME280;16133;49.486;12.176;2023-04-09T08:33:16;98197.25;;;9.87;76.67
29045;BME280;16133;49.486;12.176;2023-04-09T08:35:41;98223.97;;;10.20;76.28
29045;BME280;16133;49.486;12.176;2023-04-09T08:38:07;98209.63;;;10.30;74.82
29045;BME280;16133;49.486;12.176;2023-04-09T08:40:34;98228.81;;;10.58;74.60
29045;BME280;16133;49.486;12.176;2023-04-09T08:43:05;98208.00;;;10.79;71.02
29045;BME280;16133;49.486;12.176;2023-04-09T08:45:31;98224.16;;;11.02;70.82
29045;BME280;16133;49.486;12.176;2023-04-09T08:47:56;98180.50;;;10.88;71.19
29045;BME280;16133;49.486;12.176;2023-04-09T08:50:27;98223.41;;;11.42;69.40
29045;BME280;16133;49.486;12.176;2023-04-09T08:52:53;98219.06;;;11.65;68.79
29045;BME280;16133;49.486;12.176;2023-04-09T08:55:21;98222.59;;;11.98;67.60
29045;BME280;16133;49.486;12.176;2023-04-09T08:57:46;98214.22;;;12.25;66.74
29045;BME280;16133;49.486;12.176;2023-04-09T09:00:12;98222.06;;;12.66;64.81
29045;BME280;16133;49.486;12.176;2023-04-09T09:02:37;98228.13;;;12.90;62.54
29045;BME280;16133;49.486;12.176;2023-04-09T09:05:04;98207.47;;;12.84;61.33
29045;BME280;16133;49.486;12.176;2023-04-09T09:07:29;98226.25;;;12.99;62.62
29045;BME280;16133;49.486;12.176;2023-04-09T09:09:56;98229.38;;;13.11;63.40
29045;BME280;16133;49.486;12.176;2023-04-09T09:12:41;98229.63;;;13.24;60.65
29045;BME280;16133;49.486;12.176;2023-04-09T09:15:29;98214.63;;;13.23;60.20
29045;BME280;16133;49.486;12.176;2023-04-09T09:17:57;98225.38;;;13.37;59.38
29045;BME280;16133;49.486;12.176;2023-04-09T09:20:24;98231.19;;;13.41;58.50
29045;BME280;16133;49.486;12.176;2023-04-09T09:22:54;98224.88;;;13.34;56.77
29045;BME280;16133;49.486;12.176;2023-04-09T09:25:19;98217.63;;;12.89;56.20
29045;BME280;16133;49.486;12.176;2023-04-09T09:27:49;98206.50;;;12.46;58.46
29045;BME280;16133;49.486;12.176;2023-04-09T09:30:22;98204.13;;;12.05;58.71
29045;BME280;16133;49.486;12.176;2023-04-09T09:32:52;98192.66;;;11.56;58.24
29045;BME280;16133;49.486;12.176;2023-04-09T09:35:18;98215.75;;;11.47;58.69
29045;BME280;16133;49.486;12.176;2023-04-09T09:37:44;98207.44;;;11.18;58.79
29045;BME280;16133;49.486;12.176;2023-04-09T09:40:10;98214.69;;;10.91;60.00
29045;BME280;16133;49.486;12.176;2023-04-09T09:42:35;98189.38;;;10.63;60.74
29045;BME280;16133;49.486;12.176;2023-04-09T09:45:04;98206.97;;;10.64;59.88
29045;BME280;16133;49.486;12.176;2023-04-09T09:47:42;98213.13;;;10.39;60.67
29045;BME280;16133;49.486;12.176;2023-04-09T09:50:08;98192.25;;;10.36;61.13
29045;BME280;16133;49.486;12.176;2023-04-09T09:52:33;98187.19;;;10.17;62.58
29045;BME280;16133;49.486;12.176;2023-04-09T09:55:02;98198.50;;;10.27;61.71
29045;BME280;16133;49.486;12.176;2023-04-09T09:57:31;98182.94;;;10.32;61.38
29045;BME280;16133;49.486;12.176;2023-04-09T10:00:02;98193.84;;;10.63;61.34
29045;BME280;16133;49.486;12.176;2023-04-09T10:02:36;98188.88;;;10.68;58.91
29045;BME280;16133;49.486;12.176;2023-04-09T10:05:05;98199.66;;;10.66;60.19
29045;BME280;16133;49.486;12.176;2023-04-09T10:07:32;98159.75;;;10.34;58.63
29045;BME280;16133;49.486;12.176;2023-04-09T10:09:59;98177.47;;;10.33;59.46
29045;BME280;16133;49.486;12.176;2023-04-09T10:12:26;98187.47;;;10.47;58.88
29045;BME280;16133;49.486;12.176;2023-04-09T10:14:54;98186.97;;;10.44;61.33
29045;BME280;16133;49.486;12.176;2023-04-09T10:17:20;98171.09;;;10.52;59.96
29045;BME280;16133;49.486;12.176;2023-04-09T10:19:55;98185.41;;;10.67;60.54
29045;BME280;16133;49.486;12.176;2023-04-09T10:22:24;98172.50;;;10.72;60.36
29045;BME280;16133;49.486;12.176;2023-04-09T10:24:51;98167.38;;;10.87;60.05
29045;BME280;16133;49.486;12.176;2023-04-09T10:27:17;98136.84;;;10.83;58.73
29045;BME280;16133;49.486;12.176;2023-04-09T10:29:47;98179.56;;;11.38;57.46
29045;BME280;16133;49.486;12.176;2023-04-09T10:32:21;98172.22;;;11.96;56.90
29045;BME280;16133;49.486;12.176;2023-04-09T10:34:50;98174.28;;;12.33;56.09
29045;BME280;16133;49.486;12.176;2023-04-09T10:37:21;98173.13;;;12.67;54.80
29045;BME280;16133;49.486;12.176;2023-04-09T10:39:47;98167.09;;;12.73;54.55
29045;BME280;16133;49.486;12.176;2023-04-09T10:42:17;98175.38;;;13.17;53.62
29045;BME280;16133;49.486;12.176;2023-04-09T10:44:42;98178.44;;;13.51;53.06
29045;BME280;16133;49.486;12.176;2023-04-09T10:47:09;98184.25;;;13.55;51.95
29045;BME280;16133;49.486;12.176;2023-04-09T10:49:39;98181.91;;;13.74;51.00
29045;BME280;16133;49.486;12.176;2023-04-09T10:59:46;98170.94;;;12.70;53.87
29045;BME280;16133;49.486;12.176;2023-04-09T11:07:46;98163.72;;;12.56;55.04
29045;BME280;16133;49.486;12.176;2023-04-09T11:10:11;98159.22;;;12.57;56.01
29045;BME280;16133;49.486;12.176;2023-04-09T11:12:37;98152.47;;;12.38;55.41
29045;BME280;16133;49.486;12.176;2023-04-09T11:15:03;98149.50;;;12.33;55.76
29045;BME280;16133;49.486;12.176;2023-04-09T11:17:28;98149.38;;;12.26;55.82
29045;BME280;16133;49.486;12.176;2023-04-09T11:19:54;98148.66;;;11.77;56.61
29045;BME280;16133;49.486;12.176;2023-04-09T11:22:20;98145.97;;;11.85;58.74
29045;BME280;16133;49.486;12.176;2023-04-09T11:24:45;98154.16;;;12.31;59.02
29045;BME280;16133;49.486;12.176;2023-04-09T11:27:11;98151.88;;;12.59;56.62
29045;BME280;16133;49.486;12.176;2023-04-09T11:29:37;98137.66;;;12.74;56.97
29045;BME280;16133;49.486;12.176;2023-04-09T11:32:03;98140.47;;;12.73;56.01
29045;BME280;16133;49.486;12.176;2023-04-09T11:34:32;98139.44;;;12.82;54.59
29045;BME280;16133;49.486;12.176;2023-04-09T11:36:58;98134.56;;;12.85;54.83
29045;BME280;16133;49.486;12.176;2023-04-09T11:39:27;98134.66;;;13.00;56.20
29045;BME280;16133;49.486;12.176;2023-04-09T11:41:52;98126.56;;;13.16;55.26
29045;BME280;16133;49.486;12.176;2023-04-09T11:44:19;98130.47;;;13.28;54.33
29045;BME280;16133;49.486;12.176;2023-04-09T11:46:46;98123.44;;;13.50;55.92
29045;BME280;16133;49.486;12.176;2023-04-09T11:49:13;98119.03;;;13.57;53.54
29045;BME280;16133;49.486;12.176;2023-04-09T11:51:38;98128.63;;;13.52;53.05
29045;BME280;16133;49.486;12.176;2023-04-09T11:54:04;98124.28;;;13.51;53.62
29045;BME280;16133;49.486;12.176;2023-04-09T11:56:31;98129.22;;;13.39;54.98
29045;BME280;16133;49.486;12.176;2023-04-09T11:58:57;98131.28;;;12.83;53.37
29045;BME280;16133;49.486;12.176;2023-04-09T12:01:22;98128.00;;;12.42;52.95
29045;BME280;16133;49.486;12.176;2023-04-09T12:03:52;98121.94;;;12.26;52.84
29045;BME280;16133;49.486;12.176;2023-04-09T12:06:19;98119.78;;;12.21;52.95
29045;BME280;16133;49.486;12.176;2023-04-09T12:08:46;98107.94;;;12.24;54.09
29045;BME280;16133;49.486;12.176;2023-04-09T12:11:14;98117.63;;;12.56;54.73
29045;BME280;16133;49.486;12.176;2023-04-09T12:13:40;98118.53;;;12.93;54.86
29045;BME280;16133;49.486;12.176;2023-04-09T12:16:12;98124.69;;;13.25;54.04
29045;BME280;16133;49.486;12.176;2023-04-09T12:18:39;98124.13;;;13.52;53.10
29045;BME280;16133;49.486;12.176;2023-04-09T12:21:04;98120.19;;;13.63;51.41
29045;BME280;16133;49.486;12.176;2023-04-09T12:23:30;98125.50;;;13.48;51.50
29045;BME280;16133;49.486;12.176;2023-04-09T12:25:56;98120.50;;;13.22;51.54
29045;BME280;16133;49.486;12.176;2023-04-09T12:28:25;98128.56;;;12.91;53.15
29045;BME280;16133;49.486;12.176;2023-04-09T12:30:51;98129.50;;;12.76;54.32
29045;BME280;16133;49.486;12.176;2023-04-09T12:33:16;98136.84;;;12.66;54.77
29045;BME280;16133;49.486;12.176;2023-04-09T12:35:42;98132.47;;;12.42;55.78
29045;BME280;16133;49.486;12.176;2023-04-09T12:38:07;98129.22;;;12.24;56.70
29045;BME280;16133;49.486;12.176;2023-04-09T12:40:34;98131.28;;;12.14;56.12
29045;BME280;16133;49.486;12.176;2023-04-09T12:43:00;98127.66;;;12.07;57.05
29045;BME280;16133;49.486;12.176;2023-04-09T12:45:26;98126.13;;;12.12;56.43
29045;BME280;16133;49.486;12.176;2023-04-09T12:47:52;98123.06;;;12.31;56.53
29045;BME280;16133;49.486;12.176;2023-04-09T12:50:17;98121.59;;;12.60;55.54
29045;BME280;16133;49.486;12.176;2023-04-09T12:52:43;98125.63;;;12.78;54.75
29045;BME280;16133;49.486;12.176;2023-04-09T12:55:10;98118.00;;;12.75;54.44
29045;BME280;16133;49.486;12.176;2023-04-09T12:57:41;98121.19;;;12.71;54.98
29045;BME280;16133;49.486;12.176;2023-04-09T13:00:06;98116.97;;;12.76;55.83
29045;BME280;16133;49.486;12.176;2023-04-09T13:02:32;98114.19;;;12.70;55.04